Santa Rita — DIOY2 — position and weather

sailwx.info

Track history (hours):
 
Tides and Currents Weather Stations Pressure Air Temp Water Temp Dewpoint Dewpoint Depression Visibility Wind Speed Wind Dir Waves Ship Positions

Santa Rita

Last reported at 2015-May-16 17:27 UTC. Time now 2015-May-23 07:18 UTC.
Position N 30°36' E 125°22'.

Length 300 m; draft 11 m.

Type: Ship (hazmat cat A). MMSI: 218670000.

Date/timePositionNaut miles runAvg speedWind from/ knotsBaromVisibWave heightAir tempDewpointWater temp
2015-May-16 17:27N 30°36' E 125°22'1313.9
2015-May-16 16:32N 30°26' E 125°13'1414.6
2015-May-16 15:33N 30°16' E 125°01'1514.8
2015-May-16 14:31N 30°05' E 124°49'1514.6
2015-May-16 13:31N 29°54' E 124°38'1514.2
2015-May-16 12:27N 29°43' E 124°25'1213.5
2015-May-16 11:33N 29°34' E 124°17'1413.8
2015-May-16 10:31N 29°22' E 124°08'4012.6
2015-May-16 07:19N 28°50' E 123°40'25913.8
2015-May-15 12:30N 25°31' E 120°33'3114.5
2015-May-15 10:20N 25°09' E 120°08'1215.5
2015-May-15 09:34N 25°03' E 119°57'1716.6
2015-May-15 08:33N 24°51' E 119°44'1818.0
2015-May-15 07:33N 24°40' E 119°28'1817.5
2015-May-15 06:33N 24°29' E 119°13'1716.7
2015-May-15 05:30N 24°19' E 118°57'1516.0
2015-May-15 04:33N 24°11' E 118°43'1515.2
2015-May-15 03:33N 23°59' E 118°33'1515.2
2015-May-15 02:33N 23°51' E 118°19'1515.3
2015-May-15 01:33N 23°41' E 118°06'1616.0
2015-May-15 00:32N 23°30' E 117°53'5716.6
2015-May-14 21:05N 22°56' E 117°03'916.5
2015-May-14 20:32N 22°51' E 116°54'1616.1
2015-May-14 19:33N 22°43' E 116°40'12014.7
2015-May-14 11:21N 22°21' E 114°32'20 4.9
2015-May-14 07:18N 22°34' E 114°16'0 0.0
2015-May-14 04:23N 22°34' E 114°16'0 0.0
2015-May-14 02:06N 22°34' E 114°16'0 0.0
2015-May-14 01:30N 22°34' E 114°16'0 0.1
2015-May-14 00:03N 22°34' E 114°16'22 6.1
2015-May-13 20:33N 22°18' E 114°32'1010.4
2015-May-13 19:32N 22°10' E 114°25'17 7.8
2015-May-13 17:25N 22°14' E 114°08'6 7.4
2015-May-13 16:33N 22°20' E 114°07'0 0.1
2015-May-13 15:05N 22°20' E 114°07'0 0.0
2015-May-13 14:08N 22°20' E 114°07'0 0.0
2015-May-13 13:11N 22°20' E 114°07'0 0.0
2015-May-13 08:29N 22°20' E 114°07'0 0.0
2015-May-13 07:23N 22°20' E 114°07'0 0.0
2015-May-13 05:29N 22°20' E 114°07'0 0.0
2015-May-13 02:33N 22°20' E 114°07'0 0.0
2015-May-13 01:10N 22°20' E 114°07'0 0.0
2015-May-13 00:33N 22°20' E 114°07'0 0.0
2015-May-12 23:33N 22°20' E 114°07'1 1.0
2015-May-12 22:33N 22°20' E 114°07'8 7.8
2015-May-12 21:29N 22°12' E 114°11'7 6.9
2015-May-12 20:30N 22°08' E 114°17'1514.3
2015-May-12 19:29N 22°08' E 114°33'5714.2
2015-May-12 15:29N 22°18' E 115°33'149 8.6
2015-May-11 22:14N 23°34' E 117°52'1014.1
2015-May-11 21:31N 23°42' E 117°59'1313.8
2015-May-11 20:33N 23°52' E 118°09'1313.1
2015-May-11 19:33N 24°02' E 118°18'1211.7
2015-May-11 18:33N 24°14' E 118°17'1211.8
2015-May-11 17:33N 24°22' E 118°08'9 8.6
2015-May-11 16:34N 24°30' E 118°04'0 0.3
2015-May-11 15:23N 24°31' E 118°05'0 0.0
2015-May-11 14:29N 24°31' E 118°05'0 0.0
2015-May-11 13:32N 24°31' E 118°05'0 0.0
2015-May-11 12:29N 24°31' E 118°05'0 0.0
2015-May-11 11:17N 24°31' E 118°05'0 0.0
2015-May-11 10:29N 24°31' E 118°05'0 0.0
2015-May-11 09:29N 24°31' E 118°05'3 3.3
2015-May-11 08:33N 24°28' E 118°03'9 9.4
2015-May-11 07:33N 24°21' E 118°10'1010.3
2015-May-11 06:33N 24°13' E 118°17'8 7.3
2015-May-11 05:32N 24°14' E 118°25'9 8.4
2015-May-11 04:30N 24°16' E 118°35'9 8.8
2015-May-11 03:29N 24°20' E 118°43'10 8.6
2015-May-11 02:22N 24°23' E 118°53'17 9.6
2015-May-11 00:33N 24°29' E 119°11'1111.3
2015-May-10 23:33N 24°34' E 119°22'34512.7
2015-May-09 20:29N 29°33' E 122°35'1413.8
2015-May-09 19:29N 29°42' E 122°23'1111.3
2015-May-09 18:32N 29°49' E 122°14'10 9.9
2015-May-09 17:34N 29°47' E 122°03'2 2.0
2015-May-09 16:34N 29°46' E 122°01'0 0.0
2015-May-09 14:04N 29°46' E 122°01'0 0.0
2015-May-09 13:16N 29°46' E 122°01'0 0.0
2015-May-09 11:16N 29°46' E 122°01'0 0.0
2015-May-09 05:32N 29°46' E 122°01'9 9.6
2015-May-09 04:33N 29°51' E 122°10'1110.5
2015-May-09 03:33N 29°45' E 122°21'1111.3
2015-May-09 02:33N 29°42' E 122°33'1211.4
2015-May-09 01:32N 29°48' E 122°45'48 4.8
2015-May-08 15:27N 30°32' E 122°22'7 7.1
2015-May-08 14:28N 30°33' E 122°15'1010.8
2015-May-08 13:33N 30°37' E 122°04'1 0.2
2015-May-08 07:03N 30°38' E 122°03'0 0.0
2015-May-08 06:33N 30°38' E 122°03'0 0.1
2015-May-08 05:33N 30°38' E 122°03'0 0.0
2015-May-08 04:33N 30°38' E 122°03'0 0.0
2015-May-08 03:27N 30°38' E 122°03'0 0.0
2015-May-08 02:33N 30°38' E 122°03'0 0.1
2015-May-08 01:33N 30°38' E 122°03'3 3.0
2015-May-08 00:33N 30°36' E 122°06'10 9.7
2015-May-07 23:33N 30°33' E 122°17'8 7.2
2015-May-07 22:29N 30°32' E 122°26'6 3.0
2015-May-07 20:26N 30°28' E 122°31'0 0.0
2015-May-07 12:26N 30°28' E 122°31'0 0.1
2015-May-07 11:32N 30°28' E 122°31'0 0.0
2015-May-07 10:32N 30°28' E 122°31'0 0.0
2015-May-07 09:32N 30°28' E 122°31'0 0.1
2015-May-07 08:29N 30°28' E 122°31'0 0.1
2015-May-07 07:32N 30°28' E 122°31'0 0.0
2015-May-07 00:26N 30°28' E 122°31'0 0.0
2015-May-06 19:23N 30°28' E 122°31'  
Track history (hours):
 
Tides and Currents Weather Stations Pressure Air Temp Water Temp Dewpoint Dewpoint Depression Visibility Wind Speed Wind Dir Waves Ship Positions

Santa Rita

Last reported at 2015-May-16 17:27 UTC. Time now 2015-May-23 07:18 UTC.
Position N 30°36' E 125°22'.

Length 300 m; draft 11 m.

Type: Ship (hazmat cat A). MMSI: 218670000.

Date/timePositionNaut miles runAvg speedWind from/ knotsBaromVisibWave heightAir tempDewpointWater temp
2015-May-16 17:27N 30°36' E 125°22'1313.9
2015-May-16 16:32N 30°26' E 125°13'1414.6
2015-May-16 15:33N 30°16' E 125°01'1514.8
2015-May-16 14:31N 30°05' E 124°49'1514.6
2015-May-16 13:31N 29°54' E 124°38'1514.2
2015-May-16 12:27N 29°43' E 124°25'1213.5
2015-May-16 11:33N 29°34' E 124°17'1413.8
2015-May-16 10:31N 29°22' E 124°08'4012.6
2015-May-16 07:19N 28°50' E 123°40'25913.8
2015-May-15 12:30N 25°31' E 120°33'3114.5
2015-May-15 10:20N 25°09' E 120°08'1215.5
2015-May-15 09:34N 25°03' E 119°57'1716.6
2015-May-15 08:33N 24°51' E 119°44'1818.0
2015-May-15 07:33N 24°40' E 119°28'1817.5
2015-May-15 06:33N 24°29' E 119°13'1716.7
2015-May-15 05:30N 24°19' E 118°57'1516.0
2015-May-15 04:33N 24°11' E 118°43'1515.2
2015-May-15 03:33N 23°59' E 118°33'1515.2
2015-May-15 02:33N 23°51' E 118°19'1515.3
2015-May-15 01:33N 23°41' E 118°06'1616.0
2015-May-15 00:32N 23°30' E 117°53'5716.6
2015-May-14 21:05N 22°56' E 117°03'916.5
2015-May-14 20:32N 22°51' E 116°54'1616.1
2015-May-14 19:33N 22°43' E 116°40'12014.7
2015-May-14 11:21N 22°21' E 114°32'20 4.9
2015-May-14 07:18N 22°34' E 114°16'0 0.0
2015-May-14 04:23N 22°34' E 114°16'0 0.0
2015-May-14 02:06N 22°34' E 114°16'0 0.0
2015-May-14 01:30N 22°34' E 114°16'0 0.1
2015-May-14 00:03N 22°34' E 114°16'22 6.1
2015-May-13 20:33N 22°18' E 114°32'1010.4
2015-May-13 19:32N 22°10' E 114°25'17 7.8
2015-May-13 17:25N 22°14' E 114°08'6 7.4
2015-May-13 16:33N 22°20' E 114°07'0 0.1
2015-May-13 15:05N 22°20' E 114°07'0 0.0
2015-May-13 14:08N 22°20' E 114°07'0 0.0
2015-May-13 13:11N 22°20' E 114°07'0 0.0
2015-May-13 08:29N 22°20' E 114°07'0 0.0
2015-May-13 07:23N 22°20' E 114°07'0 0.0
2015-May-13 05:29N 22°20' E 114°07'0 0.0
2015-May-13 02:33N 22°20' E 114°07'0 0.0
2015-May-13 01:10N 22°20' E 114°07'0 0.0
2015-May-13 00:33N 22°20' E 114°07'0 0.0
2015-May-12 23:33N 22°20' E 114°07'1 1.0
2015-May-12 22:33N 22°20' E 114°07'8 7.8
2015-May-12 21:29N 22°12' E 114°11'7 6.9
2015-May-12 20:30N 22°08' E 114°17'1514.3
2015-May-12 19:29N 22°08' E 114°33'5714.2
2015-May-12 15:29N 22°18' E 115°33'149 8.6
2015-May-11 22:14N 23°34' E 117°52'1014.1
2015-May-11 21:31N 23°42' E 117°59'1313.8
2015-May-11 20:33N 23°52' E 118°09'1313.1
2015-May-11 19:33N 24°02' E 118°18'1211.7
2015-May-11 18:33N 24°14' E 118°17'1211.8
2015-May-11 17:33N 24°22' E 118°08'9 8.6
2015-May-11 16:34N 24°30' E 118°04'0 0.3
2015-May-11 15:23N 24°31' E 118°05'0 0.0
2015-May-11 14:29N 24°31' E 118°05'0 0.0
2015-May-11 13:32N 24°31' E 118°05'0 0.0
2015-May-11 12:29N 24°31' E 118°05'0 0.0
2015-May-11 11:17N 24°31' E 118°05'0 0.0
2015-May-11 10:29N 24°31' E 118°05'0 0.0
2015-May-11 09:29N 24°31' E 118°05'3 3.3
2015-May-11 08:33N 24°28' E 118°03'9 9.4
2015-May-11 07:33N 24°21' E 118°10'1010.3
2015-May-11 06:33N 24°13' E 118°17'8 7.3
2015-May-11 05:32N 24°14' E 118°25'9 8.4
2015-May-11 04:30N 24°16' E 118°35'9 8.8
2015-May-11 03:29N 24°20' E 118°43'10 8.6
2015-May-11 02:22N 24°23' E 118°53'17 9.6
2015-May-11 00:33N 24°29' E 119°11'1111.3
2015-May-10 23:33N 24°34' E 119°22'34512.7
2015-May-09 20:29N 29°33' E 122°35'1413.8
2015-May-09 19:29N 29°42' E 122°23'1111.3
2015-May-09 18:32N 29°49' E 122°14'10 9.9
2015-May-09 17:34N 29°47' E 122°03'2 2.0
2015-May-09 16:34N 29°46' E 122°01'0 0.0
2015-May-09 14:04N 29°46' E 122°01'0 0.0
2015-May-09 13:16N 29°46' E 122°01'0 0.0
2015-May-09 11:16N 29°46' E 122°01'0 0.0
2015-May-09 05:32N 29°46' E 122°01'9 9.6
2015-May-09 04:33N 29°51' E 122°10'1110.5
2015-May-09 03:33N 29°45' E 122°21'1111.3
2015-May-09 02:33N 29°42' E 122°33'1211.4
2015-May-09 01:32N 29°48' E 122°45'48 4.8
2015-May-08 15:27N 30°32' E 122°22'7 7.1
2015-May-08 14:28N 30°33' E 122°15'1010.8
2015-May-08 13:33N 30°37' E 122°04'1 0.2
2015-May-08 07:03N 30°38' E 122°03'0 0.0
2015-May-08 06:33N 30°38' E 122°03'0 0.1
2015-May-08 05:33N 30°38' E 122°03'0 0.0
2015-May-08 04:33N 30°38' E 122°03'0 0.0
2015-May-08 03:27N 30°38' E 122°03'0 0.0
2015-May-08 02:33N 30°38' E 122°03'0 0.1
2015-May-08 01:33N 30°38' E 122°03'3 3.0
2015-May-08 00:33N 30°36' E 122°06'10 9.7
2015-May-07 23:33N 30°33' E 122°17'8 7.2
2015-May-07 22:29N 30°32' E 122°26'6 3.0
2015-May-07 20:26N 30°28' E 122°31'0 0.0
2015-May-07 12:26N 30°28' E 122°31'0 0.1
2015-May-07 11:32N 30°28' E 122°31'0 0.0
2015-May-07 10:32N 30°28' E 122°31'0 0.0
2015-May-07 09:32N 30°28' E 122°31'0 0.1
2015-May-07 08:29N 30°28' E 122°31'0 0.1
2015-May-07 07:32N 30°28' E 122°31'0 0.0
2015-May-07 00:26N 30°28' E 122°31'0 0.0
2015-May-06 19:23N 30°28' E 122°31'  

Dump ship's entire track history